EmailTwitter


Observations de surface / Québec / CYMX

Régions: Québec | Canada | États-Unis | Europe | France | UK | Elsewhere
Station
Affichage
Infos & localisation pour CYMX | Aide pour décoder les METARs

Observations prises le 2017-02-23 à 02H22 UTC à MONTREAL MIRABEL, QB (CYMX)

Etat du ciel: partiellement nuageux.

Température: 2.0 Celsius

Point de rosée: 1.0 Celsius

Humidité relative: 93%

Facteur vent: 0.

Vents: Nord-est à 7 km/h ou 4 noeuds.

Pression au niveau moyen de la mer: 101.03 kilopascals.

Calage altimétrique: 100.98 kilopascals ou 29.82 pouces de mercure.

Visibilité horizontale: 10.00 milles terrestres ou 16.00 kilomètres.

Hauteur du plafond: 1189 mètres ( 3900 pieds ).

Observation METAR:

CYMX 230222Z 03004KT 010V080 10SM FEW022 BKN039 02/01 A2982 RMK SC2SC5 SLP103=